Login
Access
Login with your mtb-forum.it nickname and password.


You do not have an account? Sign up here for free

giarsa

Last training unit 30/07/2016
1
Followers
55 738 Km
itineraries
193 436 m
of total vertical gain
2050
hours of riding
27.21 Km/h
average speed
126
average HR


30/07/2016 Show to everybody Giro Mecenate 70.65 Km 48 m 02:23:02 29.64 Km\h De Rosa King3
28/07/2016 Show to everybody Giro Mecenate 72.17 Km 43 m 02:32:07 28.47 Km\h De Rosa King3
27/07/2016 Show to everybody Notturno Cassinis 41.98 Km 74 m 02:01:51 20.67 Km\h De Rosa King3
25/07/2016 Show to everybody Spasso 20.62 Km 27 m 00:55:27 22.31 Km\h De Rosa King3
21/07/2016 Show to everybody Giro Mecenate 73.25 Km 35 m 02:25:23 30.23 Km\h De Rosa King3
20/07/2016 Show to everybody MTB 46.21 Km 15 m 01:55:59 23.9 Km\h Mountainbike
19/07/2016 Show to everybody Giro Mecenate 79.31 Km 39 m 02:51:18 27.78 Km\h De Rosa King3
17/07/2016 Show to everybody Brianza 100.4 Km 539 m 03:53:10 25.84 Km\h De Rosa King3
16/07/2016 Show to everybody Giro Mecenate 60.92 Km 44 m 02:06:56 28.8 Km\h De Rosa King3
14/07/2016 Show to everybody Giro Mecenate 70.98 Km 38 m 02:31:57 28.03 Km\h De Rosa King3
13/07/2016 Show to everybody MTB 50.09 Km 18 m 02:08:52 23.32 Km\h Mountainbike
09/07/2016 Show to everybody Giro Mecenate 81.06 Km 38 m 02:37:22 30.91 Km\h De Rosa King3
07/07/2016 Show to everybody Giro Mecenate 78.59 Km 44 m 02:48:26 27.99 Km\h De Rosa King3
06/07/2016 Show to everybody MTB 45.92 Km 12 m 02:00:02 22.95 Km\h De Rosa King3
05/07/2016 Show to everybody Giro Mecenate 78.56 Km 39 m 02:44:15 28.7 Km\h De Rosa King3
03/07/2016 Show to everybody Aprica Mortirolo Aprica 58.81 Km 1351 m 03:00:51 19.51 Km\h De Rosa King3
30/06/2016 Show to everybody Giro Mecenate 79.44 Km 39 m 02:48:11 28.34 Km\h De Rosa King3
29/06/2016 Show to everybody MTB 49.66 Km 8 m 02:03:38 24.1 Km\h Mountainbike
28/06/2016 Show to everybody Giro Mecenate 80.23 Km 49 m 02:54:10 27.64 Km\h De Rosa King3
26/06/2016 Show to everybody GF. La Campionissimo Rit. x Mal di schiena 59.87 Km 1350 m 03:17:44 18.17 Km\h De Rosa King3
23/06/2016 Show to everybody Giro Mecenate 72.32 Km 38 m 02:34:31 28.08 Km\h De Rosa King3
21/06/2016 Show to everybody Giro Mecenate 72.49 Km 33 m 02:42:19 26.8 Km\h De Rosa King3
19/06/2016 Show to everybody Colle Brianza Giovenzana 108.7 Km 688 m 04:10:27 26.04 Km\h De Rosa King3
18/06/2016 Show to everybody Giro Mecenate 73.36 Km 41 m 02:33:39 28.65 Km\h De Rosa King3
17/06/2016 Show to everybody MTB 43.68 Km 22 m 01:54:11 22.95 Km\h Mountainbike
16/06/2016 Show to everybody Giro Mecenate 78.1 Km 43 m 02:44:47 28.44 Km\h Rossin
14/06/2016 Show to everybody Giro Mecenate 78.63 Km 53 m 02:44:45 28.63 Km\h Rossin
12/06/2016 Show to everybody X-Bionic Cup - Marathon MTB - Altopiano del sole 43.56 Km 1673 m 04:48:30 9.06 Km\h Mountainbike
11/06/2016 Show to everybody Giro Mattutino 55.81 Km 86 m 02:05:03 26.78 Km\h Rossin
09/06/2016 Show to everybody Giro Mecenate mancante 9.34 Km 10 m 00:19:46 28.36 Km\h Rossin
09/06/2016 Show to everybody Giro Mecenate mancante 9.34 Km 10 m 00:19:46 28.36 Km\h Rossin
09/06/2016 Show to everybody Giro Mecenate 59.54 Km 25 m 01:51:36 32.01 Km\h Rossin
07/06/2016 Show to everybody Giro Mecenate 80.55 Km 29 m 02:50:55 28.28 Km\h De Rosa King3
05/06/2016 Show to everybody Montevecchia 97.13 Km 518 m 03:45:36 25.83 Km\h De Rosa King3
03/06/2016 Show to everybody Aprica 45.89 Km 796 m 01:57:27 23.45 Km\h De Rosa King3
02/06/2016 Show to everybody Aprica 45.99 Km 800 m 01:54:05 24.19 Km\h De Rosa King3
31/05/2016 Show to everybody Giro Mecenate 67.04 Km 27 m 02:18:54 28.96 Km\h Rossin
27/05/2016 Show to everybody Giro Mattutino 44.29 Km 28 m 01:49:46 24.21 Km\h De Rosa King3
26/05/2016 Show to everybody Giro Mecenate 62.85 Km 37 m 02:01:19 31.08 Km\h De Rosa King3
25/05/2016 Show to everybody MTB 50.88 Km 1369 m 04:42:02 10.82 Km\h Wilier 101
24/05/2016 Show to everybody Giro Mecenate con bucatura 64.7 Km 45 m 02:21:00 27.53 Km\h De Rosa King3
18/05/2016 Show to everybody MTB 39.93 Km 896 m 02:34:01 15.55 Km\h De Rosa King3
17/05/2016 Show to everybody Giro Mecenate 73.31 Km 48 m 02:31:42 29 Km\h De Rosa King3
15/05/2016 Show to everybody Colle Brianza e Sirtori 109.63 Km 667 m 04:07:51 26.54 Km\h De Rosa King3
14/05/2016 Show to everybody Giro Mecenate 72.31 Km 41 m 02:20:57 30.78 Km\h De Rosa King3
08/05/2016 Show to everybody Colle Brianza 114.41 Km 620 m 04:17:32 26.66 Km\h De Rosa King3
07/05/2016 Show to everybody Giro Mecenate 69.91 Km 49 m 02:21:36 29.62 Km\h De Rosa King3
06/05/2016 Show to everybody Giro Mattutino con lavaggio bici 32.79 Km 17 m 01:27:09 22.58 Km\h De Rosa King3
05/05/2016 Show to everybody Giro Mecenate 73.62 Km 52 m 02:32:11 29.02 Km\h De Rosa King3
04/05/2016 Show to everybody Giro MTB Muzza e Spino d`Adda 74.35 Km 55 m 03:26:52 21.57 Km\h Mountainbike
03/05/2016 Show to everybody Giro Mecenate 72.5 Km 37 m 02:32:22 28.55 Km\h De Rosa King3
30/04/2016 Show to everybody Giro Mecenate 71.25 Km 62 m 02:24:14 29.64 Km\h De Rosa King3
27/04/2016 Show to everybody Giro Muzza MTB 53.64 Km 13 m 02:28:50 21.63 Km\h Mountainbike
26/04/2016 Show to everybody Giro Mecenate 71.8 Km 45 m 02:33:00 28.16 Km\h De Rosa King3
24/04/2016 Show to everybody Aprica MTB 25.47 Km 705 m 01:42:08 14.97 Km\h Mountainbike
18/04/2016 Show to everybody Lodi Vecchio 24.57 Km 40 m 00:57:16 25.74 Km\h De Rosa King3
17/04/2016 Show to everybody Diano Marina MTB 44.05 Km 794 m 02:21:42 18.65 Km\h Mountainbike
14/04/2016 Show to everybody 1° Uscita con Massimo 16.06 Km 13 m 00:48:37 19.82 Km\h Mountainbike
14/04/2016 Show to everybody Giro Mattutino 62.87 Km 70 m 02:17:25 27.45 Km\h De Rosa King3
13/04/2016 Show to everybody Giro Muzza MTB 48.04 Km 31 m 02:04:48 23.1 Km\h Mountainbike
12/04/2016 Show to everybody Giro Mecenate 73.63 Km 43 m 02:35:27 28.42 Km\h Rossin
10/04/2016 Show to everybody GF. Medio Carpaneto Piacentino 90.33 Km 1565 m 03:43:33 24.24 Km\h De Rosa King3
09/04/2016 Show to everybody Giro Mecenate 71.02 Km 46 m 02:30:21 28.34 Km\h Rossin
07/04/2016 Show to everybody Giro Mecenate 73.09 Km 49 m 02:27:06 29.81 Km\h De Rosa King3
05/04/2016 Show to everybody Giro MTB Muzza 63.96 Km 44 m 02:42:06 23.68 Km\h Mountainbike
03/04/2016 Show to everybody Colle Brianza 107.33 Km 694 m 04:10:24 25.72 Km\h De Rosa King3
02/04/2016 Show to everybody Giro Mecenate 70.08 Km 42 m 02:22:43 29.46 Km\h De Rosa King3
31/03/2016 Show to everybody Giro Mecenate 73.62 Km 247 m 02:29:59 29.45 Km\h De Rosa King3
29/03/2016 Show to everybody Giro Mecenate 72.49 Km 242 m 02:36:25 27.81 Km\h De Rosa King3
26/03/2016 Show to everybody Giro Mecenate 20.06 Km 815 m 01:15:35 15.93 Km\h De Rosa King3
24/03/2016 Show to everybody Giro Mecenate 72.11 Km 41 m 02:35:23 27.84 Km\h De Rosa King3
23/03/2016 Show to everybody Giro MTB Canale della Muzza 73.36 Km 68 m 03:15:27 22.52 Km\h Mountainbike
22/03/2016 Show to everybody Giro Mecenate 75.43 Km 53 m 02:38:27 28.56 Km\h Rossin
18/03/2016 Show to everybody Giro MTB 54.11 Km 57 m 02:22:17 22.82 Km\h Mountainbike
17/03/2016 Show to everybody Giro Mecenate 73.53 Km 47 m 02:39:27 27.67 Km\h Rossin
15/03/2016 Show to everybody Giro Mecenate 73.11 Km 60 m 02:40:50 27.28 Km\h Rossin
13/03/2016 Show to everybody GF. MTB Carpenedolo 50.92 Km 266 m 02:34:44 19.74 Km\h Mountainbike
12/03/2016 Show to everybody Giro Mecenate 70.15 Km 51 m 02:29:13 28.21 Km\h Rossin
11/03/2016 Show to everybody Giro MTB 46.36 Km 42 m 01:59:36 23.26 Km\h Mountainbike
10/03/2016 Show to everybody Giro Mecenate 72.09 Km 56 m 02:36:10 27.7 Km\h Rossin
09/03/2016 Show to everybody Giro Mattutino MTB 40.13 Km 34 m 01:50:02 21.88 Km\h Mountainbike
08/03/2016 Show to everybody Giro Mecenare 69.35 Km 46 m 02:30:21 27.68 Km\h Rossin
06/03/2016 Show to everybody Randonne parco del Ticino 190.29 Km 363 m 05:59:05 31.8 Km\h De Rosa King3
03/03/2016 Show to everybody Giro Mecenate 73 Km 51 m 02:43:35 26.78 Km\h Rossin
01/03/2016 Show to everybody Giro Mecenate 69.17 Km 56 m 02:42:14 25.58 Km\h Rossin
26/02/2016 Show to everybody Sciatina Aprica 38.37 Km 3067 m 02:14:45 17.08 Km\h Rossin
25/02/2016 Show to everybody Giro Mecenate 70.09 Km 51 m 02:25:16 28.95 Km\h Rossin
24/02/2016 Show to everybody Giro Mattutino 51.49 Km 90 m 01:55:59 26.64 Km\h Rossin
21/02/2016 Show to everybody Uscita società Cassinis 96.48 Km 954 m 04:06:52 23.45 Km\h De Rosa King3
20/02/2016 Show to everybody San Colombano Al Lambro MTB 30.5 Km 638 m 02:35:31 11.77 Km\h Mountainbike
19/02/2016 Show to everybody Giro Mattutino 50.77 Km 97 m 01:50:58 27.45 Km\h De Rosa King3
18/02/2016 Show to everybody Giro Mecenate 69.3 Km 272 m 02:41:19 25.78 Km\h Rossin
11/02/2016 Show to everybody Giro Mecenate 70.9 Km 45 m 02:24:51 29.37 Km\h De Rosa King3
10/02/2016 Show to everybody Uscita MTB 35.94 Km 60 m 01:39:47 21.61 Km\h Mountainbike
09/02/2016 Show to everybody Giro Mecenate 76.92 Km 52 m 02:34:04 29.96 Km\h Rossin
05/02/2016 Show to everybody Giro Mattutino 56.01 Km 84 m 02:09:38 25.92 Km\h De Rosa King3
04/02/2016 Show to everybody Giro Mecenate 71.72 Km 51 m 02:46:42 25.81 Km\h De Rosa King3
31/01/2016 Show to everybody Rando della Merla 101.91 Km 757 m 03:40:55 27.68 Km\h De Rosa King3
26/01/2016 Show to everybody Giro Mecenate 71.56 Km 46 m 02:33:38 27.95 Km\h Rossin
24/01/2016 Show to everybody Brianza Mecenate 93.99 Km 295 m 03:37:18 25.95 Km\h De Rosa King3
19/01/2016 Show to everybody Giro Mecenate 72.64 Km 36 m 02:39:45 27.28 Km\h De Rosa King3
17/01/2016 Show to everybody Brianza Cassinis 109.7 Km 582 m 04:36:12 23.83 Km\h De Rosa King3
15/01/2016 Show to everybody Giro Mattutino 51.45 Km 109 m 02:02:31 25.2 Km\h De Rosa King3
13/01/2016 Show to everybody Giro Mattutino 51.48 Km 86 m 02:01:55 25.34 Km\h Rossin
12/01/2016 Show to everybody Giro Mattutino 61.63 Km 29 m 02:27:00 25.15 Km\h Rossin
10/01/2016 Show to everybody Giro MTB 42.13 Km 25 m 01:49:16 23.13 Km\h Mountainbike
07/01/2016 Show to everybody Giro Mattutino 55.03 Km 28 m 02:09:12 25.56 Km\h Rossin
06/01/2016 Show to everybody Giro Mattutino 51.45 Km 94 m 02:02:17 25.24 Km\h Rossin
30/12/2015 Show to everybody Giro Mattutino 50.35 Km 92 m 01:57:41 25.67 Km\h Rossin
25/12/2015 Show to everybody MTB 30.12 Km 50 m 01:15:31 23.93 Km\h Mountainbike
20/12/2015 Show to everybody Brianza 88.87 Km 318 m 03:22:08 26.38 Km\h De Rosa King3
19/12/2015 Show to everybody MTB 34.5 Km 22 m 01:28:00 23.52 Km\h Mountainbike
17/12/2015 Show to everybody MTB 47.78 Km 85 m 01:56:35 24.59 Km\h Mountainbike
15/12/2015 Show to everybody MTB 46.52 Km 13 m 01:57:41 23.72 Km\h Mountainbike
13/12/2015 Show to everybody MTB 31.55 Km 44 m 01:20:57 23.38 Km\h Mountainbike
12/12/2015 Show to everybody Giretto 29.97 Km 39 m 01:21:43 22 Km\h De Rosa King3
10/12/2015 Show to everybody MTB 30.66 Km 33 m 01:17:40 23.69 Km\h Mountainbike
01/12/2015 Show to everybody MTB 36.83 Km 20 m 01:35:32 23.13 Km\h Mountainbike
20/11/2015 Show to everybody MTB 44.51 Km 92 m 01:49:54 24.3 Km\h Mountainbike
12/11/2015 Show to everybody Giro Mecenate 72.21 Km 51 m 02:40:37 26.97 Km\h De Rosa King3
10/11/2015 Show to everybody Giro Mecenate 73.36 Km 45 m 02:34:46 28.44 Km\h De Rosa King3
08/11/2015 Show to everybody Giro Brianza 93.07 Km 479 m 03:36:27 25.8 Km\h De Rosa King3
05/11/2015 Show to everybody Giro Mecenate 72.38 Km 36 m 02:43:10 26.62 Km\h De Rosa King3
03/11/2015 Show to everybody Giro Mecenate 72.17 Km 57 m 02:38:45 27.28 Km\h De Rosa King3
01/11/2015 Show to everybody Rogoredo 55.97 Km 75 m 02:07:21 26.37 Km\h De Rosa King3
10/10/2015 Show to everybody Giro Mecenate 75.33 Km 63 m 02:32:37 29.62 Km\h De Rosa King3
08/10/2015 Show to everybody Giro Mattutino 71.99 Km 53 m 02:24:26 29.9 Km\h De Rosa King3
07/10/2015 Show to everybody Lodi 24.49 Km 46 m 00:55:44 26.36 Km\h De Rosa King3
05/10/2015 Show to everybody Giro Mattutino 54.47 Km 56 m 01:28:08 37.09 Km\h De Rosa King3
01/10/2015 Show to everybody Giro Mecenate 73.07 Km 46 m 02:24:16 30.39 Km\h De Rosa King3
29/09/2015 Show to everybody Giro Mecenate 73.01 Km 43 m 02:30:08 29.18 Km\h De Rosa King3
26/09/2015 Show to everybody Giro Mecenate 72.12 Km 50 m 02:19:43 30.97 Km\h De Rosa King3
22/09/2015 Show to everybody Giro Mecenate 72.01 Km 65 m 02:34:40 27.93 Km\h De Rosa King3
20/09/2015 Show to everybody Aprica Vezza 50.37 Km 826 m 02:05:09 24.15 Km\h Wilier 101
17/09/2015 Show to everybody Giro Mecenate 73.52 Km 48 m 02:28:57 29.62 Km\h De Rosa King3
15/09/2015 Show to everybody Giro Mecenate 72.59 Km 55 m 02:26:15 29.78 Km\h De Rosa King3
12/09/2015 Show to everybody Giro Mecenate 70.87 Km 44 m 02:14:05 31.71 Km\h De Rosa King3
10/09/2015 Show to everybody Giro Mecenate 72.58 Km 60 m 02:24:37 30.11 Km\h De Rosa King3
08/09/2015 Show to everybody Giro Mecenate 72.77 Km 51 m 02:28:29 29.41 Km\h De Rosa King3
08/09/2015 Show to everybody Giro Mecenate 72.77 Km 51 m 02:28:29 29.41 Km\h De Rosa King3
06/09/2015 Show to everybody San Colombano al Lambro 97.38 Km 255 m 03:24:25 28.58 Km\h De Rosa King3
03/09/2015 Show to everybody Giro mecenate 73.23 Km 52 m 02:26:11 30.06 Km\h De Rosa King3
01/09/2015 Show to everybody Giro Mecenate 71.34 Km 39 m 02:26:39 29.19 Km\h De Rosa King3
30/08/2015 Show to everybody Giro Mattutino 71.26 Km 113 m 02:31:57 28.14 Km\h De Rosa King3
29/08/2015 Show to everybody Giro Mecenate 70.92 Km 36 m 02:26:31 29.04 Km\h De Rosa King3
27/08/2015 Show to everybody Giro Aprica 62.81 Km 961 m 02:32:23 24.73 Km\h Wilier 101
25/08/2015 Show to everybody Giro Aprica 47.13 Km 801 m 01:56:35 24.25 Km\h Wilier 101
22/08/2015 Show to everybody Giro Aprica 68.83 Km 1513 m 03:14:15 21.26 Km\h Wilier 101
18/08/2015 Show to everybody Giro Aprica 54.68 Km 860 m 02:19:22 23.54 Km\h Wilier 101
14/08/2015 Show to everybody Giro Palinuro 57 Km 1025 m 02:43:34 20.91 Km\h De Rosa King3
06/08/2015 Show to everybody Giro Leuca 45.65 Km 371 m 01:46:13 25.79 Km\h De Rosa King3
04/08/2015 Show to everybody Giro Leuca 46.16 Km 384 m 01:56:08 23.85 Km\h De Rosa King3
29/07/2015 Show to everybody Giro Notturno Cassinis 67.89 Km 133 m 02:47:08 24.37 Km\h De Rosa King3
29/07/2015 Show to everybody Girettino 24.14 Km 38 m 00:58:46 24.65 Km\h De Rosa King3
28/07/2015 Show to everybody Giro Mecenate 74.76 Km 40 m 02:37:18 28.52 Km\h De Rosa King3
28/07/2015 Show to everybody Giro Mecenate 75.1 Km 251 m 02:39:29 28.26 Km\h De Rosa King3
26/07/2015 Show to everybody Aprica 69.23 Km 1503 m 03:17:46 21 Km\h Wilier 101
23/07/2015 Show to everybody Mortirolo 61.89 Km 1361 m 03:03:12 20.27 Km\h Wilier 101
22/07/2015 Show to everybody Vezza D\`Oglio 49.84 Km 799 m 02:05:41 23.79 Km\h Wilier 101
19/07/2015 Show to everybody GF. Fabio Casartelli 113.22 Km 1827 m 04:23:54 25.74 Km\h Wilier 101
18/07/2015 Show to everybody Giro Mecenate 70.92 Km 40 m 02:32:01 27.99 Km\h De Rosa King3
16/07/2015 Show to everybody Giro Mecenate 71.78 Km 35 m 02:35:01 27.78 Km\h De Rosa King3
15/07/2015 Show to everybody Giro Serale Cassinis 78.95 Km 73 m 02:38:53 29.81 Km\h De Rosa King3
14/07/2015 Show to everybody Giro Mecenate 72.38 Km 50 m 02:37:46 27.53 Km\h De Rosa King3
12/07/2015 Show to everybody Brianza 98.98 Km 0 m 03:57:29 25.01 Km\h De Rosa King3
11/07/2015 Show to everybody Giro Mecenate 70.35 Km 0 m 02:23:19 29.45 Km\h De Rosa King3
09/07/2015 Show to everybody Giro Mecenate 79.9 Km 0 m 02:52:50 27.74 Km\h De Rosa King3
07/07/2015 Show to everybody Giro Mecenate 71.79 Km 0 m 02:38:54 27.11 Km\h De Rosa King3
05/07/2015 Show to everybody Madonna del Bosco 98.41 Km 0 m 03:41:13 26.69 Km\h De Rosa King3
04/07/2015 Show to everybody Giro Mecenate 76.82 Km 0 m 02:43:50 28.13 Km\h De Rosa King3
02/07/2015 Show to everybody Giro Mecenate 80.61 Km 0 m 02:51:58 28.13 Km\h De Rosa King3
01/07/2015 Show to everybody Rogoredo Ciclismo 39.58 Km 0 m 01:33:30 25.4 Km\h De Rosa King3
30/06/2015 Show to everybody Giro Mecenate 75.29 Km 0 m 02:46:46 27.09 Km\h De Rosa King3
28/06/2015 Show to everybody Gf Campionissimo Corto 84.19 Km 0 m 04:28:33 18.81 Km\h Wilier 101
25/06/2015 Show to everybody Giro Mecenate 82.13 Km 0 m 02:55:17 28.11 Km\h De Rosa King3
24/06/2015 Show to everybody Rogoredo Ciclismo 36.16 Km 0 m 01:24:33 25.66 Km\h Wilier 101
23/06/2015 Show to everybody Ciclismo Rogoredo 54.42 Km 0 m 01:56:58 27.92 Km\h Wilier 101
21/06/2015 Show to everybody Villa Vergano 115.41 Km 0 m 04:13:05 27.36 Km\h Wilier 101
20/06/2015 Show to everybody Giro Mecenate 75 Km 0 m 02:35:32 28.93 Km\h Wilier 101
18/06/2015 Show to everybody Giro Mecenate 81.05 Km 0 m 02:46:02 29.29 Km\h Wilier 101
13/06/2015 Show to everybody Rogoredo Ciclismo 65.94 Km 0 m 02:26:42 26.97 Km\h Wilier 101
11/06/2015 Show to everybody Giro Mecenate 80.52 Km 0 m 02:56:36 27.36 Km\h De Rosa King3
10/06/2015 Show to everybody Rogoredo ciclismo 51.03 Km 0 m 01:52:17 27.27 Km\h De Rosa King3
09/06/2015 Show to everybody Dopo 13 giorni di malattia si ritorna a pedalare ! 78.54 Km 0 m 02:49:27 27.81 Km\h De Rosa King3
28/05/2015 Show to everybody Giro Mecenate 72.82 Km 0 m 02:37:33 27.73 Km\h Wilier 101
27/05/2015 Show to everybody Aprica Milano 172.32 Km 417 m 06:19:43 27.23 Km\h Wilier 101
25/05/2015 Show to everybody Rogoredo Ciclismo 31.46 Km 0 m 01:19:52 23.64 Km\h Wilier 101
24/05/2015 Show to everybody GF. Nove colli (Medio) 132.32 Km 2175 m 05:11:51 25.46 Km\h Wilier 101
23/05/2015 Show to everybody Rogoredo Ciclismo 57.72 Km 0 m 02:15:36 25.54 Km\h De Rosa King3
21/05/2015 Show to everybody Giro Mecenate 71.91 Km 0 m 02:25:19 29.69 Km\h Wilier 101
19/05/2015 Show to everybody Giro Mecenate 84.03 Km 0 m 02:53:45 29.02 Km\h Wilier 101
18/05/2015 Show to everybody Rogoredo Ciclismo 56.34 Km 0 m 02:10:48 25.85 Km\h Wilier 101
17/05/2015 Show to everybody Certosa di Pavia 85.51 Km 0 m 03:05:10 27.71 Km\h Wilier 101
16/05/2015 Show to everybody Giro Mecenate 72.08 Km 0 m 02:28:22 29.15 Km\h Wilier 101
14/05/2015 Show to everybody Giro Mecenate 84.64 Km 0 m 03:01:11 28.03 Km\h Wilier 101
12/05/2015 Show to everybody Giro Mecenate 79.92 Km 0 m 02:47:40 28.6 Km\h Wilier 101
10/05/2015 Show to everybody Gf. Gimondi (Medio) 141.05 Km 2193 m 05:30:40 25.59 Km\h Wilier 101
09/05/2015 Show to everybody Giro Mecenate 70.79 Km 0 m 02:33:04 27.75 Km\h Rossin
07/05/2015 Show to everybody Giro Mecenate 84.05 Km 0 m 02:55:38 28.71 Km\h Wilier 101
05/05/2015 Show to everybody Giro Mecenate 86.42 Km 0 m 03:01:37 28.55 Km\h Wilier 101
03/05/2015 Show to everybody Santa Cristina Aprica 20.63 Km 0 m 01:19:47 15.51 Km\h De Rosa King3
01/05/2015 Show to everybody Gf. 10 Colli Medio 84.84 Km 0 m 03:09:30 26.86 Km\h De Rosa King3
30/04/2015 Show to everybody Mezzo giro Mecenate 54.09 Km 0 m 02:03:56 26.19 Km\h Wilier 101
29/04/2015 Show to everybody Rogoredo Ciclismo 51.29 Km 0 m 02:02:15 25.17 Km\h Wilier 101
28/04/2015 Show to everybody Rogoredo Ciclismo 78.16 Km 0 m 02:42:03 28.94 Km\h Wilier 101
25/04/2015 Show to everybody Giro Mecenate 75.91 Km 0 m 02:25:11 31.37 Km\h Wilier 101
24/04/2015 Show to everybody A Spasso 54.63 Km 0 m 02:11:15 24.97 Km\h Wilier 101
23/04/2015 Show to everybody Giro Mecenate 86.3 Km 0 m 02:54:27 29.68 Km\h Wilier 101
21/04/2015 Show to everybody Giro Mecenate 86.37 Km 0 m 02:54:54 29.63 Km\h Wilier 101
20/04/2015 Show to everybody Rogoredo Ciclismo 62.36 Km 0 m 02:26:45 25.49 Km\h Wilier 101
16/04/2015 Show to everybody Giro Mecenate 86.73 Km 0 m 02:58:04 29.22 Km\h Wilier 101
14/04/2015 Show to everybody Giro Mecenate 86.44 Km 0 m 02:56:05 29.45 Km\h De Rosa King3
12/04/2015 Show to everybody Gf. Coppa Piacentina + Recupero Amici 115.68 Km 1675 m 04:44:54 24.36 Km\h De Rosa King3
11/04/2015 Show to everybody Giro Mecenate 51.11 Km 0 m 01:48:27 28.28 Km\h De Rosa King3
09/04/2015 Show to everybody Giro Mecenate 83.32 Km 0 m 02:44:51 30.33 Km\h Wilier 101
08/04/2015 Show to everybody Giretto 55.93 Km 0 m 02:14:00 25.04 Km\h Wilier 101
07/04/2015 Show to everybody Giro Mecenate 84.09 Km 0 m 02:49:29 29.77 Km\h Wilier 101
02/04/2015 Show to everybody Giro mecenate 80.98 Km 0 m 02:54:31 27.84 Km\h Rossin
31/03/2015 Show to everybody Giro Mecenate 79.95 Km 0 m 02:57:11 27.07 Km\h Rossin
29/03/2015 Show to everybody Gf. Sant\`Angelo Lodigiano Medio 123.99 Km 0 m 04:11:09 29.62 Km\h Wilier 101
28/03/2015 Show to everybody Giro Mecenate 70.3 Km 0 m 02:41:33 26.11 Km\h Wilier 101
27/03/2015 Show to everybody Giro con vento forte 45.93 Km 0 m 01:56:32 23.65 Km\h Wilier 101
24/03/2015 Show to everybody Giro Mecenate 72.25 Km 0 m 02:30:39 28.78 Km\h Wilier 101
19/03/2015 Show to everybody Giro Mecenate 80.01 Km 0 m 02:53:40 27.64 Km\h Rossin
18/03/2015 Show to everybody San Colombano 89.61 Km 0 m 03:18:44 27.05 Km\h Wilier 101
15/03/2015 Show to everybody Brianza 103.47 Km 593 m 03:53:18 26.61 Km\h Wilier 101
14/03/2015 Show to everybody Giro Mecenate 77.4 Km 0 m 02:44:55 28.16 Km\h Wilier 101
13/03/2015 Show to everybody Rogoredo Ciclismo 40.09 Km 0 m 01:35:39 25.15 Km\h Rossin
12/03/2015 Show to everybody Giro Mecenate 80.03 Km 0 m 02:54:45 27.48 Km\h Rossin
10/03/2015 Show to everybody Giro Mecenate 79.23 Km 65 m 02:52:22 27.58 Km\h Wilier 101
09/03/2015 Show to everybody Rogoredo Ciclismo 50.02 Km 128 m 01:52:52 26.59 Km\h Wilier 101
08/03/2015 Show to everybody Randolario corto 96.46 Km 1106 m 03:24:54 28.25 Km\h Wilier 101
07/03/2015 Show to everybody Giro Mecenate 74.75 Km 50 m 02:49:19 26.49 Km\h Wilier 101
05/03/2015 Show to everybody Giro Mecenate 78.32 Km 58 m 02:55:42 26.75 Km\h Wilier 101
04/03/2015 Show to everybody Giro Leggero 40.07 Km 80 m 01:37:33 24.64 Km\h Wilier 101
03/03/2015 Show to everybody Giro Mecenate 72.13 Km 42 m 02:41:43 26.76 Km\h Wilier 101
01/03/2015 Show to everybody RANDO DEL PARCO DEL TICINO 202.32 Km 391 m 06:36:56 30.58 Km\h Wilier 101
28/02/2015 Show to everybody Agilissimo 39.87 Km 61 m 01:46:57 22.37 Km\h Wilier 101
26/02/2015 Show to everybody Giro Mecenate 71.94 Km 45 m 02:35:36 27.74 Km\h Wilier 101
25/02/2015 Show to everybody Giro Solitario 61.82 Km 92 m 02:24:05 25.74 Km\h Wilier 101
22/02/2015 Show to everybody Gf. Laigueglia e A.R. Andora 115.93 Km 1743 m 05:00:52 23.12 Km\h De Rosa King3
19/02/2015 Show to everybody Giro Mecenate 82.36 Km 65 m 02:53:58 28.41 Km\h Wilier 101
17/02/2015 Show to everybody Giro Mecenate 79.48 Km 40 m 02:48:00 28.39 Km\h Wilier 101
16/02/2015 Show to everybody Giro Mountabike 40.03 Km 48 m 01:40:42 23.85 Km\h Mountainbike
12/02/2015 Show to everybody Giro Mecenate 77.78 Km 40 m 02:48:33 27.69 Km\h Wilier 101
10/02/2015 Show to everybody Giro Mecenate 72.48 Km 37 m 02:44:11 26.49 Km\h Wilier 101
09/02/2015 Show to everybody mountain bike 51.36 Km 100 m 02:05:47 24.5 Km\h Mountainbike
08/02/2015 Show to everybody mountain bike 26.98 Km 37 m 01:15:29 21.45 Km\h Mountainbike
03/02/2015 Show to everybody Giro Mecenate 69.88 Km 41 m 02:37:34 26.61 Km\h Wilier 101
02/02/2015 Show to everybody Girettino Leggero 50.1 Km 85 m 02:06:21 23.79 Km\h Wilier 101
01/02/2015 Show to everybody Brianza 92.31 Km 359 m 03:25:23 26.97 Km\h De Rosa King3
31/01/2015 Show to everybody Giro Mecenate corto 54.32 Km 20 m 02:06:13 25.82 Km\h Wilier 101
27/01/2015 Show to everybody Giro Solitario 56.08 Km 100 m 02:14:23 25.04 Km\h Wilier 101
25/01/2015 Show to everybody Rando della Merla 101.7 Km 749 m 03:45:40 27.04 Km\h Wilier 101
23/01/2015 Show to everybody mountain bike 38.49 Km 56 m 01:42:54 22.44 Km\h Mountainbike
20/01/2015 Show to everybody Giro Solitario 50.22 Km 86 m 02:06:06 23.89 Km\h Wilier 101
18/01/2015 Show to everybody Giro Brianza 92.29 Km 444 m 03:26:35 26.8 Km\h Wilier 101
15/01/2015 Show to everybody Giro mountain bike 42.73 Km 63 m 01:53:20 22.62 Km\h Mountainbike
15/01/2015 Show to everybody Giro 66.23 Km 93 m 02:25:50 27.25 Km\h Wilier 101
11/01/2015 Show to everybody In giro per la Brianza 92.79 Km 405 m 03:34:56 25.9 Km\h De Rosa King3
08/01/2015 Show to everybody Giro Solitario 50.16 Km 86 m 02:06:24 23.81 Km\h Wilier 101
06/01/2015 Show to everybody Inizio Stagione 50.23 Km 92 m 02:07:36 23.62 Km\h Wilier 101
21/12/2014 Show to everybody Uscita di fine anno Cassinis \"Sedriano\" 71.02 Km 365 m 03:04:16 23.13 Km\h Wilier 101
18/12/2014 Show to everybody Passegiata 50.27 Km 94 m 01:58:50 25.38 Km\h Wilier 101
17/12/2014 Show to everybody Giretto in mountain bike 34.88 Km 61 m 01:29:00 23.51 Km\h Mountainbike
11/12/2014 Show to everybody Giro Mecenate 71.55 Km 34 m 02:31:22 28.36 Km\h Wilier 101
10/12/2014 Show to everybody Giro mountain bike 38.7 Km 82 m 01:43:21 22.47 Km\h Wilier 101
08/12/2014 Show to everybody Gerno 72.32 Km 213 m 02:48:20 25.78 Km\h Wilier 101
04/12/2014 Show to everybody Giretto 59.99 Km 10 m 02:19:17 25.84 Km\h Wilier 101
23/11/2014 Show to everybody Brianza 84.27 Km 225 m 03:02:24 27.72 Km\h Wilier 101
22/11/2014 Show to everybody Giro Mecenate 71.39 Km 26 m 02:31:00 28.37 Km\h Wilier 101
20/11/2014 Show to everybody Giro Mecenate 71.59 Km 34 m 02:26:21 29.35 Km\h Wilier 101
18/11/2014 Show to everybody Giro Mountain Bike 56.64 Km 23 m 02:15:26 25.09 Km\h Mountainbike
16/11/2014 Show to everybody Giro in Mountain bike 65.94 Km 80 m 02:36:27 25.29 Km\h Mountainbike
14/11/2014 Show to everybody Girettino 63.85 Km 85 m 02:26:43 26.11 Km\h Wilier 101
09/11/2014 Show to everybody Giro ex società Rogoredo 69.77 Km 104 m 02:30:01 27.9 Km\h Wilier 101
08/11/2014 Show to everybody Giro Mecenate 71.42 Km 42 m 02:28:21 28.88 Km\h Wilier 101
06/11/2014 Show to everybody Pioggiaaaaaaaa 19.54 Km 11 m 00:51:05 22.95 Km\h Wilier 101
02/11/2014 Show to everybody Brianza con Rogoredo 91.69 Km 353 m 03:18:42 27.69 Km\h Wilier 101
01/11/2014 Show to everybody Girettino 52.71 Km 68 m 02:04:01 25.5 Km\h Wilier 101
30/10/2014 Show to everybody Giro Mecenate 71.47 Km 31 m 02:31:52 28.24 Km\h Wilier 101
28/10/2014 Show to everybody Giro Mecenate 72.41 Km 28 m 02:33:31 28.3 Km\h Wilier 101
26/10/2014 Show to everybody Cronometro sociale + giretto in zona 39.93 Km 697 m 01:57:17 20.43 Km\h De Rosa King3
25/10/2014 Show to everybody Giro Sociale Cassinis a Verona 101.32 Km 2076 m 04:39:19 21.76 Km\h De Rosa King3
23/10/2014 Show to everybody Giro Mecenate 72.2 Km 58 m 02:37:28 27.51 Km\h Wilier 101
21/10/2014 Show to everybody Giro Mecenate 69.97 Km 39 m 02:19:06 30.18 Km\h Wilier 101
19/10/2014 Show to everybody Randonee Ovada 124.94 Km 2216 m 05:25:42 23.02 Km\h Wilier 101
18/10/2014 Show to everybody Giro Mecenate 74.56 Km 23 m 02:31:10 29.59 Km\h Wilier 101
16/10/2014 Show to everybody Giro Mecenate 71.39 Km 34 m 02:32:15 28.14 Km\h Wilier 101
14/10/2014 Show to everybody Giro Mecenate 69.46 Km 38 m 02:22:05 29.33 Km\h Wilier 101
12/10/2014 Show to everybody Randonne delle foglie morte 195.96 Km 425 m 06:20:54 30.87 Km\h Wilier 101
09/10/2014 Show to everybody Giro Mecenate 74.26 Km 31 m 02:34:20 28.87 Km\h Wilier 101
07/10/2014 Show to everybody Giro Leggero 56.76 Km 13 m 02:17:40 24.74 Km\h Wilier 101
05/10/2014 Show to everybody Randonne Settimo Milanese 214.18 Km 1719 m 07:40:41 27.89 Km\h Wilier 101
04/10/2014 Show to everybody Giro Mecenate Accorciato 63.95 Km 21 m 02:19:20 27.54 Km\h Wilier 101
02/10/2014 Show to everybody Giro Mecenate 86.37 Km 37 m 03:00:37 28.69 Km\h Wilier 101
30/09/2014 Show to everybody Giro Mecenate allungato 101.9 Km 28 m 03:29:45 29.15 Km\h Wilier 101
29/09/2014 Show to everybody Leggerissimo 40.31 Km 81 m 01:37:19 24.85 Km\h Wilier 101
28/09/2014 Show to everybody Lesmo, Sirtori e colle brianza 112.51 Km 740 m 04:13:14 26.66 Km\h Wilier 101
27/09/2014 Show to everybody Giro Mecenate 81.54 Km 29 m 02:51:39 28.5 Km\h Wilier 101
25/09/2014 Show to everybody Giro Mecenate Allungato 104.6 Km 41 m 03:29:48 29.92 Km\h Wilier 101
24/09/2014 Show to everybody Giro Solitario 63.8 Km 76 m 02:27:17 25.99 Km\h Wilier 101
23/09/2014 Show to everybody Giro Mecenate 87.84 Km 37 m 03:04:51 28.51 Km\h Wilier 101
21/09/2014 Show to everybody Gf. Noberasco in retrovia con Tiziana 114.78 Km 2099 m 05:38:28 20.35 Km\h De Rosa King3
20/09/2014 Show to everybody Giro leggero pre Noberasco 62.83 Km 16 m 02:21:06 26.72 Km\h Wilier 101
18/09/2014 Show to everybody Giro Mecenate 87.86 Km 25 m 03:05:12 28.46 Km\h Wilier 101
17/09/2014 Show to everybody Giro Solitario 50.27 Km 86 m 01:52:53 26.72 Km\h De Rosa King3
16/09/2014 Show to everybody Giro Mecenate 87.68 Km 34 m 03:03:06 28.73 Km\h De Rosa King3
14/09/2014 Show to everybody Randonnee Nerviano 122.28 Km 1039 m 04:14:26 28.83 Km\h Wilier 101
13/09/2014 Show to everybody Giro Mecenate 85.37 Km 39 m 02:57:05 28.93 Km\h Wilier 101
12/09/2014 Show to everybody Giro Solitario 50.17 Km 83 m 01:56:26 25.85 Km\h Wilier 101
11/09/2014 Show to everybody Giro Mecenate 88.64 Km 44 m 03:00:12 29.51 Km\h Wilier 101
09/09/2014 Show to everybody Giro Mecenate 81.72 Km 15 m 02:51:54 28.52 Km\h Wilier 101
07/09/2014 Show to everybody Gf. Delle Alpi 124.81 Km 2157 m 05:25:15 23.02 Km\h Wilier 101
06/09/2014 Show to everybody Giro Mecenate 76.11 Km 21 m 02:39:13 28.68 Km\h De Rosa King3
04/09/2014 Show to everybody Giro Mecenate 88.27 Km 40 m 03:00:38 29.32 Km\h Wilier 101
02/09/2014 Show to everybody Giro Mecenate 85.2 Km 32 m 02:54:51 29.24 Km\h Wilier 101
30/08/2014 Show to everybody Diano Marina Passo del Lupo 79.28 Km 1501 m 03:55:43 20.18 Km\h Wilier 101
28/08/2014 Show to everybody Diano Marina Interno Liguria 67.52 Km 1252 m 03:12:56 21 Km\h Wilier 101
26/08/2014 Show to everybody Diano Marina Passo del Ginestro 56.78 Km 888 m 02:19:30 24.42 Km\h Wilier 101
24/08/2014 Show to everybody Giro Solitario 58.12 Km 64 m 02:02:39 28.43 Km\h Wilier 101
20/08/2014 Show to everybody Giro Krk Croazia 48.64 Km 967 m 02:17:15 21.26 Km\h Wilier 101
17/08/2014 Show to everybody Giro Krk Croazia 49.96 Km 1042 m 02:18:14 21.68 Km\h Wilier 101
16/08/2014 Show to everybody KRK Baska e ritorno (Croazia) 58.65 Km 1093 m 02:39:37 22.05 Km\h Wilier 101
11/08/2014 Show to everybody Giro KRK Croazia 58.68 Km 1039 m 02:43:33 21.53 Km\h Wilier 101
07/08/2014 Show to everybody Giro Mecenate 79.14 Km 26 m 02:44:38 28.84 Km\h Wilier 101
05/08/2014 Show to everybody Giro Mecenate 79.04 Km 33 m 02:37:19 30.14 Km\h Wilier 101
04/08/2014 Show to everybody Giro Solitario 65.12 Km 76 m 02:26:36 26.65 Km\h Wilier 101
31/07/2014 Show to everybody Commissione in Mountain Bike 15.74 Km 47 m 00:30:06 31.37 Km\h Mountainbike
31/07/2014 Show to everybody Giro Mecenate 89.91 Km 42 m 03:00:41 29.86 Km\h Wilier 101
29/07/2014 Show to everybody Giro Mecenate 82.62 Km 51 m 02:46:37 29.75 Km\h Wilier 101
28/07/2014 Show to everybody In Giro 57.79 Km 86 m 02:09:40 26.74 Km\h Wilier 101
27/07/2014 Show to everybody GF. San Gottardo (Medio) 56.96 Km 1507 m 02:56:08 19.4 Km\h Wilier 101
25/07/2014 Show to everybody Giretto 60.82 Km 48 m 02:23:41 25.4 Km\h Wilier 101
23/07/2014 Show to everybody Giro Solitario 63.58 Km 84 m 02:26:16 26.08 Km\h Wilier 101
20/07/2014 Show to everybody GF. La Mont Blanc (Medio) 95.98 Km 1301 m 04:10:13 23.02 Km\h Wilier 101
19/07/2014 Show to everybody Giro Mecenate 77.7 Km 87 m 02:35:06 30.06 Km\h Wilier 101
17/07/2014 Show to everybody Giro Mecenate 95.6 Km 66 m 03:27:27 27.65 Km\h Wilier 101
15/07/2014 Show to everybody Giro Mecenate 79.43 Km 36 m 02:51:31 27.79 Km\h Wilier 101
13/07/2014 Show to everybody GF. Fausto Coppi (Medio) 113.31 Km 2569 m 05:25:03 20.92 Km\h De Rosa King3
12/07/2014 Show to everybody Giro Mecenate Accorciato 64 Km 40 m 02:09:18 29.7 Km\h Wilier 101
10/07/2014 Show to everybody Giro Mecenate Allungato 102.29 Km 68 m 03:18:33 30.91 Km\h Wilier 101
08/07/2014 Show to everybody Giro Mecenate 77.56 Km 35 m 02:37:08 29.61 Km\h Wilier 101
07/07/2014 Show to everybody Giro Solitario 62 Km 95 m 02:15:48 27.39 Km\h Wilier 101
05/07/2014 Show to everybody Giro Mecenate 80.23 Km 53 m 02:47:11 28.79 Km\h Wilier 101
03/07/2014 Show to everybody Giro Mecenate 77.76 Km 49 m 02:35:03 30.09 Km\h Wilier 101
02/07/2014 Show to everybody Pedalata Notturna Cassinis 71.44 Km 50 m 02:35:50 27.51 Km\h Wilier 101
01/07/2014 Show to everybody Giro Mecenate 83.42 Km 45 m 02:48:45 29.66 Km\h Wilier 101
29/06/2014 Show to everybody Giro Bagnato 66.11 Km 21 m 02:29:33 26.52 Km\h De Rosa King3
28/06/2014 Show to everybody Giro Mecenate 85.29 Km 52 m 02:57:08 28.89 Km\h Wilier 101
26/06/2014 Show to everybody Giro Mecenate 71.37 Km 39 m 02:29:04 28.73 Km\h Wilier 101
24/06/2014 Show to everybody Giro Mecenate 74.7 Km 56 m 02:39:49 28.04 Km\h De Rosa King3
22/06/2014 Show to everybody Gf. Giordana (Medio) 152.62 Km 3449 m 07:38:07 19.99 Km\h De Rosa King3
21/06/2014 Show to everybody Giro Mecenate accorciato 61.09 Km 28 m 02:18:32 26.46 Km\h De Rosa King3
20/06/2014 Show to everybody Giretto 45.97 Km 62 m 01:40:21 27.49 Km\h De Rosa King3
19/06/2014 Show to everybody Giro Mecenate Allungato 91.1 Km 68 m 03:04:31 29.62 Km\h Wilier 101
18/06/2014 Show to everybody Girettino 50.07 Km 88 m 01:50:36 27.16 Km\h De Rosa King3
15/06/2014 Show to everybody Gf. Sportful (Medio) 133.55 Km 3033 m 05:59:14 22.31 Km\h De Rosa King3
12/06/2014 Show to everybody Giro Mecenate 72.14 Km 26 m 02:27:25 29.36 Km\h De Rosa King3
10/06/2014 Show to everybody Giro Mecenate 73.48 Km 19 m 02:35:07 28.42 Km\h De Rosa King3
08/06/2014 Show to everybody Gf. Vigneti d\`Oltrepo Marathon 158.72 Km 2725 m 07:01:51 22.57 Km\h De Rosa King3
07/06/2014 Show to everybody Giro Mecenate ultimo gruppo 72.89 Km 31 m 02:47:09 26.16 Km\h De Rosa King3
05/06/2014 Show to everybody Giro Mecenate Allungato 89.1 Km 43 m 02:55:31 30.46 Km\h De Rosa King3
03/06/2014 Show to everybody Giro Mecenate Allungato 89.45 Km 35 m 03:08:12 28.52 Km\h De Rosa King3
02/06/2014 Show to everybody Giro Leggero 56.76 Km 85 m 02:33:58 22.12 Km\h De Rosa King3
01/06/2014 Show to everybody GF Cooperatori Terre di Lambrusco - Cantina Canali 124.14 Km 2444 m 05:08:13 24.17 Km\h De Rosa King3
31/05/2014 Show to everybody Giro Mecenate 71.29 Km 63 m 02:21:27 30.24 Km\h De Rosa King3
29/05/2014 Show to everybody Giro Mecenate Allungato 112.19 Km 103 m 03:47:40 29.57 Km\h De Rosa King3
27/05/2014 Show to everybody Giro Mecenate Allungato 94.18 Km 84 m 03:03:11 30.85 Km\h De Rosa King3
25/05/2014 Show to everybody Gita con Amici 65 Km 1035 m 02:51:55 22.69 Km\h De Rosa King3
24/05/2014 Show to everybody Giro Mecenate 77.73 Km 58 m 02:38:40 29.39 Km\h De Rosa King3
23/05/2014 Show to everybody Giro Leggero 50.63 Km 100 m 01:57:30 25.85 Km\h De Rosa King3
22/05/2014 Show to everybody Giro Mecenate Allungato 103.06 Km 99 m 03:30:16 29.41 Km\h De Rosa King3
20/05/2014 Show to everybody Giro Mecenate Allungato 95.07 Km 88 m 03:11:58 29.71 Km\h De Rosa King3
19/05/2014 Show to everybody Giro Solitario 60.78 Km 105 m 02:16:33 26.71 Km\h De Rosa King3
16/05/2014 Show to everybody Giro solitario Leggero 52.24 Km 123 m 01:54:54 27.28 Km\h De Rosa King3
15/05/2014 Show to everybody Giro Mecenate Allungato 94.09 Km 86 m 03:16:27 28.74 Km\h De Rosa King3
14/05/2014 Show to everybody Giro Leggero Ventoso 45.49 Km 114 m 01:54:16 23.89 Km\h De Rosa King3
13/05/2014 Show to everybody Giro Mecenate Allungato 93.45 Km 74 m 03:08:54 29.68 Km\h De Rosa King3
11/05/2014 Show to everybody Gf. Valli Bresciane Lungo 158.84 Km 3070 m 06:31:41 24.33 Km\h De Rosa King3
10/05/2014 Show to everybody Giro Mecenate 71.48 Km 51 m 02:25:13 29.53 Km\h De Rosa King3
08/05/2014 Show to everybody Giro Mecenate Allungato 110.75 Km 112 m 03:45:09 29.51 Km\h De Rosa King3
06/05/2014 Show to everybody Giro Mecenate Allungato 94.6 Km 72 m 03:08:14 30.15 Km\h De Rosa King3
05/05/2014 Show to everybody Girettino Leggero 34.03 Km 67 m 01:20:08 25.48 Km\h De Rosa King3
04/05/2014 Show to everybody Gf. Gimondi Medio 127.59 Km 2351 m 05:05:26 25.06 Km\h De Rosa King3
03/05/2014 Show to everybody Giro Leggero 53.36 Km 29 m 02:00:50 26.5 Km\h De Rosa King3
01/05/2014 Show to everybody Gf. 10 Colli (Medio) 82.93 Km 1290 m 02:54:23 28.54 Km\h De Rosa King3
29/04/2014 Show to everybody Giro Mecenate 86.32 Km 88 m 02:58:31 29.01 Km\h De Rosa King3
27/04/2014 Show to everybody Gf. Giro dei 3 Laghi 142.68 Km 2289 m 05:42:29 25 Km\h De Rosa King3
24/04/2014 Show to everybody Jesolo Jesolo 79.25 Km 27 m 02:49:16 28.09 Km\h De Rosa King3
21/04/2014 Show to everybody Gf. Pantanissima 109.72 Km 1717 m 04:11:29 26.18 Km\h De Rosa King3
17/04/2014 Show to everybody Giro Mecenate + solitario 110.29 Km 141 m 03:48:30 28.96 Km\h De Rosa King3
16/04/2014 Show to everybody Giro Leggero 55.12 Km 104 m 02:01:30 27.22 Km\h De Rosa King3
15/04/2014 Show to everybody Giro Mecenate Allungato 100.21 Km 144 m 03:34:52 27.98 Km\h De Rosa King3
13/04/2014 Show to everybody Gf. Coppa Piacentina 125.01 Km 2264 m 05:06:07 24.5 Km\h De Rosa King3
12/04/2014 Show to everybody Giro Mecenate Accorciato 54.9 Km 34 m 02:03:34 26.66 Km\h De Rosa King3
11/04/2014 Show to everybody Giro Solitario 57.56 Km 138 m 01:52:42 30.64 Km\h De Rosa King3
10/04/2014 Show to everybody Giro Mecenate Allungato 103.13 Km 57 m 03:33:10 29.03 Km\h De Rosa King3
09/04/2014 Show to everybody Giro Solitario 57.29 Km 88 m 01:56:20 29.55 Km\h De Rosa King3
08/04/2014 Show to everybody Giro Mecenate 90.24 Km 45 m 03:09:26 28.58 Km\h De Rosa King3
07/04/2014 Show to everybody Giretto 31.75 Km 47 m 01:22:00 23.24 Km\h De Rosa King3
04/04/2014 Show to everybody Giro Leggero 36.36 Km 69 m 01:31:07 23.94 Km\h De Rosa King3
03/04/2014 Show to everybody Giro Mecenate 95.1 Km 72 m 03:10:06 30.02 Km\h De Rosa King3
02/04/2014 Show to everybody Giro Leggero 50.36 Km 104 m 01:56:15 25.99 Km\h De Rosa King3
01/04/2014 Show to everybody Giro Mecenate 86.25 Km 93 m 02:47:32 30.89 Km\h De Rosa King3
29/03/2014 Show to everybody Giro Leggero 56.35 Km 34 m 02:11:32 25.7 Km\h De Rosa King3
27/03/2014 Show to everybody Giro Mecenate 83.03 Km 57 m 02:57:21 28.09 Km\h De Rosa King3
25/03/2014 Show to everybody Giro Mecenate Allungato 107.35 Km 170 m 03:34:43 30 Km\h De Rosa King3
24/03/2014 Show to everybody Giro Solitario 51.5 Km 104 m 01:53:34 27.21 Km\h De Rosa King3
22/03/2014 Show to everybody Giro Mecenate Allungato 96.34 Km 77 m 03:19:56 28.91 Km\h De Rosa King3
21/03/2014 Show to everybody Giro Solitario 50.34 Km 106 m 01:52:31 26.84 Km\h De Rosa King3
20/03/2014 Show to everybody Giro Mecenate Allungato 90.15 Km 96 m 03:09:19 28.57 Km\h De Rosa King3
19/03/2014 Show to everybody Giro Solitario 50.38 Km 107 m 01:53:58 26.53 Km\h De Rosa King3
18/03/2014 Show to everybody Giro Mecenate Allungato 86.54 Km 68 m 03:06:50 27.79 Km\h De Rosa King3
16/03/2014 Show to everybody Gf. Camogli 98.75 Km 1873 m 04:05:44 24.11 Km\h De Rosa King3
15/03/2014 Show to everybody Giro Mecenate 69.8 Km 79 m 02:18:49 30.17 Km\h De Rosa King3
13/03/2014 Show to everybody Giro Mecenate e altro 113.45 Km 158 m 04:00:03 28.36 Km\h De Rosa King3
11/03/2014 Show to everybody Giro Mecenate Allungato 95.2 Km 97 m 03:18:19 28.8 Km\h De Rosa King3
10/03/2014 Show to everybody Riposo Attivo 40.4 Km 75 m 01:37:48 24.79 Km\h De Rosa King3
09/03/2014 Show to everybody Gf. Alassio 110.22 Km 1946 m 04:42:35 23.4 Km\h De Rosa King3
07/03/2014 Show to everybody Giro Camper 38.45 Km 53 m 01:27:56 26.23 Km\h De Rosa King3
06/03/2014 Show to everybody Giro Mecenate 80.81 Km 58 m 02:50:07 28.5 Km\h De Rosa King3
05/03/2014 Show to everybody Giro Solitario 59.43 Km 104 m 02:19:49 25.51 Km\h De Rosa King3
04/03/2014 Show to everybody Giro Mecenate 80.72 Km 88 m 02:46:08 29.15 Km\h De Rosa King3
02/03/2014 Show to everybody Giro Società lago di Como 92.45 Km 1496 m 04:04:20 22.7 Km\h De Rosa King3
28/02/2014 Show to everybody Giro Solitario 71.24 Km 121 m 02:35:20 27.52 Km\h De Rosa King3
25/02/2014 Show to everybody Giro Mecenate 84.5 Km 67 m 02:57:28 28.57 Km\h De Rosa King3
24/02/2014 Show to everybody Giro d\`agilità 47.02 Km 82 m 01:55:41 24.39 Km\h De Rosa King3
23/02/2014 Show to everybody Gf. Laigueglia 109.48 Km 1646 m 04:17:15 25.54 Km\h De Rosa King3
20/02/2014 Show to everybody Giro Mecenate 71.84 Km 57 m 02:31:39 28.42 Km\h De Rosa King3
18/02/2014 Show to everybody Giro Mecenate allungato 100.22 Km 112 m 03:31:38 28.41 Km\h De Rosa King3
15/02/2014 Show to everybody Giro Mecenate 80.39 Km 51 m 02:51:06 28.19 Km\h De Rosa King3
13/02/2014 Show to everybody Giro Mecenate 80.1 Km 62 m 02:42:18 29.61 Km\h De Rosa King3
11/02/2014 Show to everybody Giro Mecenate 80.31 Km 75 m 02:47:16 28.81 Km\h De Rosa King3
09/02/2014 Show to everybody Giro Solitario 68.43 Km 106 m 02:37:53 26.01 Km\h De Rosa King3
08/02/2014 Show to everybody Giro Mecenate 77.09 Km 61 m 02:35:27 29.76 Km\h De Rosa King3
06/02/2014 Show to everybody Giro Mecenate 80.32 Km 66 m 02:52:16 27.97 Km\h De Rosa King3
02/02/2014 Show to everybody Giro Mountabike 50.06 Km 98 m 01:57:27 25.57 Km\h Mountainbike
28/01/2014 Show to everybody Giro Mecenate 72.16 Km 52 m 02:28:38 29.13 Km\h De Rosa King3
26/01/2014 Show to everybody Rando della Merla 104.3 Km 676 m 03:37:11 28.81 Km\h De Rosa King3
25/01/2014 Show to everybody Giro Mecenate 71.61 Km 55 m 02:39:33 26.93 Km\h De Rosa King3
23/01/2014 Show to everybody Giro Mecenate 72.01 Km 54 m 02:23:37 30.09 Km\h De Rosa King3
22/01/2014 Show to everybody Giro Mountabike 50.93 Km 99 m 01:56:15 26.28 Km\h Mountainbike
21/01/2014 Show to everybody Giro Mecenate 78.71 Km 63 m 02:44:10 28.77 Km\h De Rosa King3
15/01/2014 Show to everybody Giro Solitario 64.67 Km 108 m 02:27:38 26.28 Km\h De Rosa King3
13/01/2014 Show to everybody Giro Montanbike 50.08 Km 113 m 01:57:54 25.49 Km\h De Rosa King3
11/01/2014 Show to everybody Giro Mecenate 77.57 Km 54 m 02:40:53 28.93 Km\h De Rosa King3
09/01/2014 Show to everybody Giro Mecenate 72.18 Km 70 m 02:35:02 27.94 Km\h De Rosa King3
08/01/2014 Show to everybody Agilità 45.9 Km 88 m 01:45:48 26.03 Km\h De Rosa King3
07/01/2014 Show to everybody Giro Mecenate 72.02 Km 56 m 02:36:21 27.64 Km\h De Rosa King3
06/01/2014 Show to everybody Bassa Brianza 72.16 Km 166 m 02:42:18 26.68 Km\h De Rosa King3
03/01/2014 Show to everybody Giro Mountainbike 50.08 Km 109 m 02:04:45 24.09 Km\h De Rosa King3
01/01/2014 Show to everybody Giro Solitario Agilità 55.4 Km 115 m 02:11:01 25.37 Km\h De Rosa King3
30/12/2013 Show to everybody Giro solitario Agilità 67.63 Km 101 m 02:36:46 25.88 Km\h De Rosa King3
28/12/2013 Show to everybody Giro Mecenate 74 Km 65 m 02:38:18 28.05 Km\h De Rosa King3
21/12/2013 Show to everybody Rulli Agilità 0.73 Km 1 m 00:16:48 2.6 Km\h De Rosa King3
15/12/2013 Show to everybody Brianza Gerno 80.37 Km 243 m 02:55:17 27.51 Km\h De Rosa King3
14/12/2013 Show to everybody Giro leggero 52 Km 33 m 02:10:14 23.96 Km\h De Rosa King3
13/12/2013 Show to everybody Giro in Mountabike 43.38 Km 108 m 01:46:46 24.38 Km\h Mountainbike
07/12/2013 Show to everybody Giro Mecenate 72.82 Km 56 m 02:40:40 27.2 Km\h De Rosa King3
05/12/2013 Show to everybody Giro Mecenate 72.08 Km 54 m 02:34:29 28 Km\h De Rosa King3
03/12/2013 Show to everybody Giro Mecenate 72.19 Km 56 m 02:31:30 28.59 Km\h De Rosa King3
02/12/2013 Show to everybody Giro Mountainbike 52.13 Km 105 m 02:06:40 24.69 Km\h Mountainbike
28/11/2013 Show to everybody Giro Mecenate 72.18 Km 48 m 02:33:47 28.16 Km\h De Rosa King3
26/11/2013 Show to everybody Giro Mecenate 72.39 Km 62 m 02:37:20 27.61 Km\h De Rosa King3
24/11/2013 Show to everybody Giro Montabike 50.11 Km 39 m 02:03:48 24.29 Km\h Mountainbike
23/11/2013 Show to everybody Giro Mecenate 72.21 Km 54 m 02:26:51 29.51 Km\h De Rosa King3
20/11/2013 Show to everybody Giro In Montabike 45.25 Km 74 m 01:52:42 24.09 Km\h Mountainbike
17/11/2013 Show to everybody Giro Brianza 101.9 Km 454 m 03:39:34 27.85 Km\h De Rosa King3
16/11/2013 Show to everybody Giro Mecenate 72.08 Km 59 m 02:29:38 28.9 Km\h De Rosa King3
14/11/2013 Show to everybody Giro Mecenate 72.32 Km 56 m 02:26:49 29.56 Km\h De Rosa King3
12/11/2013 Show to everybody Giro Mecenate 72.1 Km 57 m 02:33:21 28.21 Km\h De Rosa King3
10/11/2013 Show to everybody Giro Società 64.08 Km 115 m 02:13:04 28.89 Km\h De Rosa King3
07/11/2013 Show to everybody Giro Mecenate 74.84 Km 58 m 02:34:47 29.01 Km\h De Rosa King3
05/11/2013 Show to everybody Giro Mecenate 72.58 Km 71 m 02:37:47 27.6 Km\h De Rosa King3
24/10/2013 Show to everybody Giro Solitario 50.32 Km 94 m 01:42:47 29.38 Km\h De Rosa King3
20/10/2013 Show to everybody Bicchignano di Vigolzone Piacenza 89.43 Km 275 m 03:13:06 27.79 Km\h De Rosa King3
19/10/2013 Show to everybody Giro Mecenate 70.97 Km 44 m 02:18:06 30.83 Km\h De Rosa King3
17/10/2013 Show to everybody Giro Mecenate 72.47 Km 62 m 02:22:48 30.45 Km\h De Rosa King3
16/10/2013 Show to everybody Defaticamento 48.65 Km 113 m 01:54:19 25.53 Km\h De Rosa King3
15/10/2013 Show to everybody Giro Mecenate 72.21 Km 66 m 02:23:04 30.29 Km\h De Rosa King3
13/10/2013 Show to everybody San Colombano 89.01 Km 224 m 03:08:48 28.29 Km\h De Rosa King3
12/10/2013 Show to everybody Giro Mecenate 70.19 Km 51 m 02:13:38 31.51 Km\h De Rosa King3
11/10/2013 Show to everybody Giro Solitario 50.33 Km 90 m 01:52:58 26.73 Km\h De Rosa King3
06/10/2013 Show to everybody Gf. Sìte da Prià 95.22 Km 1958 m 04:26:37 21.43 Km\h De Rosa King3
03/10/2013 Show to everybody Giro Mecenate allungato 87.08 Km 61 m 02:53:44 30.07 Km\h De Rosa King3
01/10/2013 Show to everybody Giro Mecenate allungato 89.76 Km 69 m 02:58:20 30.2 Km\h De Rosa King3
28/09/2013 Show to everybody Giro Mecenate 71.51 Km 46 m 02:19:01 30.86 Km\h De Rosa King3
26/09/2013 Show to everybody Giro Mecenate allungato 91.21 Km 81 m 03:01:39 30.13 Km\h De Rosa King3
24/09/2013 Show to everybody Giro Mecenate allungato 86.87 Km 77 m 02:55:07 29.76 Km\h De Rosa King3
22/09/2013 Show to everybody Gf. Colnago Desenzano del Garda Medio 103.62 Km 811 m 03:02:08 34.13 Km\h De Rosa King3
21/09/2013 Show to everybody Giro Mecenate 76.42 Km 57 m 02:38:19 28.96 Km\h De Rosa King3
19/09/2013 Show to everybody Giro Mecenate allungato 86.01 Km 79 m 02:51:26 30.1 Km\h De Rosa King3
17/09/2013 Show to everybody Giro Mecenate allungato 88.39 Km 68 m 03:00:00 29.46 Km\h De Rosa King3
14/09/2013 Show to everybody Giro Mecenate allungato 87.58 Km 121 m 02:46:33 31.55 Km\h De Rosa King3
13/09/2013 Show to everybody Giro Solitorio defaticamento 50.33 Km 97 m 01:55:18 26.19 Km\h De Rosa King3
12/09/2013 Show to everybody Giro Mecenate allungato 91.59 Km 68 m 02:57:43 30.92 Km\h De Rosa King3
10/09/2013 Show to everybody Giro Mecenate 72.36 Km 68 m 02:24:41 30.01 Km\h De Rosa King3
08/09/2013 Show to everybody Giro Società San Colombano 86.97 Km 217 m 03:00:06 28.98 Km\h De Rosa King3
07/09/2013 Show to everybody Giro Mecenate 71.44 Km 55 m 02:19:21 30.76 Km\h De Rosa King3
06/09/2013 Show to everybody Giro Solitario Defaticamento 50.33 Km 104 m 01:57:38 25.67 Km\h De Rosa King3
05/09/2013 Show to everybody Giro Mecenate allungato 88.36 Km 71 m 02:56:42 30 Km\h De Rosa King3
03/09/2013 Show to everybody Giro Mecenate allungato 83.73 Km 61 m 02:53:00 29.04 Km\h De Rosa King3
01/09/2013 Show to everybody Brianza 88.7 Km 344 m 03:22:08 26.33 Km\h De Rosa King3
31/08/2013 Show to everybody Giro Mecenate 70.03 Km 49 m 02:15:13 31.07 Km\h De Rosa King3
29/08/2013 Show to everybody Giro Mecenate 70.07 Km 51 m 02:20:16 29.97 Km\h De Rosa King3
28/08/2013 Show to everybody Giro Solitario 50.11 Km 93 m 01:52:58 26.62 Km\h De Rosa King3
19/08/2013 Show to everybody Monte Pellegrino 28.5 Km 482 m 01:20:03 21.36 Km\h De Rosa King3
14/08/2013 Show to everybody Marsala 44.31 Km 148 m 01:51:16 23.9 Km\h De Rosa King3
11/08/2013 Show to everybody Lido di Noto 47.56 Km 597 m 01:57:51 24.21 Km\h De Rosa King3
06/08/2013 Show to everybody Giardini Naxsos 44 Km 440 m 02:02:23 21.57 Km\h De Rosa King3
01/08/2013 Show to everybody Giro Mecenate 70.73 Km 55 m 02:28:29 28.58 Km\h De Rosa King3
30/07/2013 Show to everybody Giro Mecenate 72.17 Km 68 m 02:14:39 32.16 Km\h De Rosa King3
28/07/2013 Show to everybody Giro Solitario 50.22 Km 99 m 01:46:28 28.3 Km\h De Rosa King3
27/07/2013 Show to everybody Giro Mecenate Acc. 66.88 Km 28 m 02:20:26 28.57 Km\h De Rosa King3
25/07/2013 Show to everybody Giro Mecenate 73.03 Km 59 m 02:23:08 30.61 Km\h De Rosa King3
23/07/2013 Show to everybody Giro Mecenate 71.99 Km 63 m 02:20:03 30.84 Km\h De Rosa King3
21/07/2013 Show to everybody Brianza Società 95.86 Km 359 m 03:16:46 29.23 Km\h De Rosa King3
20/07/2013 Show to everybody Giro Mecenate 72.08 Km 54 m 02:30:29 28.74 Km\h De Rosa King3
18/07/2013 Show to everybody Giro Mecenate 73.28 Km 48 m 02:28:28 29.62 Km\h De Rosa King3
16/07/2013 Show to everybody Giro Mecenate 72.01 Km 61 m 02:24:25 29.92 Km\h De Rosa King3
14/07/2013 Show to everybody Mapey Dey Re Stelvio 43.24 Km 1493 m 02:23:09 18.12 Km\h De Rosa King3
12/07/2013 Show to everybody Defaticamento 26.05 Km 35 m 01:00:17 25.93 Km\h De Rosa King3
11/07/2013 Show to everybody Giro Mecenate 72.03 Km 62 m 02:28:16 29.15 Km\h De Rosa King3
09/07/2013 Show to everybody Giro Mecenate 73.29 Km 58 m 02:32:58 28.75 Km\h De Rosa King3
08/07/2013 Show to everybody Defaticamento 31.14 Km 73 m 01:11:46 26.04 Km\h De Rosa King3
07/07/2013 Show to everybody Gf. Fausto Coppi Medio 112.13 Km 2509 m 05:24:39 20.72 Km\h De Rosa King3
06/07/2013 Show to everybody Defaticamento 26 Km 35 m 01:02:15 25.06 Km\h De Rosa King3
04/07/2013 Show to everybody Giro Mecenate 71.5 Km 48 m 02:17:51 31.12 Km\h De Rosa King3
02/07/2013 Show to everybody Giro Mecenate 72.09 Km 63 m 02:18:46 31.17 Km\h De Rosa King3
01/07/2013 Show to everybody A spasso 23.82 Km 58 m 00:50:34 28.26 Km\h De Rosa King3
28/06/2013 Show to everybody A spasso 28.26 Km 53 m 01:01:55 27.39 Km\h De Rosa King3
27/06/2013 Show to everybody Giro Mecenate 72.26 Km 61 m 02:33:16 28.29 Km\h De Rosa King3
25/06/2013 Show to everybody Giro Mecenate 72.89 Km 65 m 02:29:31 29.25 Km\h De Rosa King3
24/06/2013 Show to everybody Passeggiata 29.31 Km 28 m 01:04:33 27.24 Km\h De Rosa King3
20/06/2013 Show to everybody Giro Mecenate 71.03 Km 49 m 02:28:26 28.71 Km\h De Rosa King3
18/06/2013 Show to everybody Giro Mecenate 73.85 Km 60 m 02:32:22 29.08 Km\h De Rosa King3
16/06/2013 Show to everybody Milano-Parzanica 103.74 Km 795 m 03:47:23 27.38 Km\h De Rosa King3
15/06/2013 Show to everybody Giro Mecenate 71.94 Km 47 m 02:20:06 30.81 Km\h De Rosa King3
13/06/2013 Show to everybody Giro Mecenate 72.12 Km 58 m 02:23:02 30.25 Km\h De Rosa King3
12/06/2013 Show to everybody Defaticamento 55.64 Km 24 m 02:03:48 26.97 Km\h De Rosa King3
11/06/2013 Show to everybody Giro Mecenate 72.09 Km 62 m 02:14:19 32.2 Km\h De Rosa King3
09/06/2013 Show to everybody Giro con pioggia 66.9 Km 100 m 02:25:05 27.67 Km\h De Rosa King3
06/06/2013 Show to everybody Defaticamento 30.22 Km 71 m 01:05:23 27.73 Km\h De Rosa King3
06/06/2013 Show to everybody Giro Mecenate 72.22 Km 54 m 02:29:19 29.02 Km\h De Rosa King3
04/06/2013 Show to everybody Giro Mecenate 72.14 Km 60 m 02:14:34 32.16 Km\h De Rosa King3
30/05/2013 Show to everybody Giro Mecenate 72.27 Km 73 m 02:23:40 30.18 Km\h De Rosa King3
28/05/2013 Show to everybody Giro Mecenate 72.15 Km 70 m 02:21:32 30.58 Km\h De Rosa King3
27/05/2013 Show to everybody Defaticamento 36.23 Km 77 m 01:24:52 25.61 Km\h De Rosa King3
26/05/2013 Show to everybody Gf. 2 Passi Matildica (Medio) 115.53 Km 1439 m 03:57:25 29.2 Km\h De Rosa King3
23/05/2013 Show to everybody Giro Mecenate 72.21 Km 45 m 02:19:47 31 Km\h De Rosa King3
21/05/2013 Show to everybody Giro Mecenate 72.06 Km 54 m 02:07:17 33.97 Km\h De Rosa King3
20/05/2013 Show to everybody Giro Solitario 61.24 Km 105 m 02:08:12 28.66 Km\h De Rosa King3
18/05/2013 Show to everybody Giro Mecenate allungato 84.3 Km 106 m 02:44:02 30.84 Km\h De Rosa King3
15/05/2013 Show to everybody Defaticamento 60.14 Km 101 m 02:09:56 27.77 Km\h De Rosa King3
14/05/2013 Show to everybody Giro Mecenate 72.29 Km 54 m 02:20:05 30.96 Km\h De Rosa King3
12/05/2013 Show to everybody Gf. Valli Bresciane (Medio) 107.29 Km 1445 m 03:55:26 27.34 Km\h De Rosa King3
09/05/2013 Show to everybody Giro Mecenate allungato 89.38 Km 64 m 02:55:19 30.59 Km\h De Rosa King3
08/05/2013 Show to everybody Giro Solitario 60.09 Km 89 m 02:08:48 27.99 Km\h De Rosa King3
07/05/2013 Show to everybody Giro Mecenate allungato 82.02 Km 60 m 02:39:38 30.83 Km\h De Rosa King3
05/05/2013 Show to everybody Giro prima della comunione 51.34 Km 68 m 01:49:38 28.1 Km\h De Rosa King3
04/05/2013 Show to everybody Giro Mecenate allungato 95.22 Km 118 m 02:54:40 32.71 Km\h De Rosa King3
02/05/2013 Show to everybody Giro Mecenate 72.42 Km 49 m 02:18:57 31.27 Km\h De Rosa King3
01/05/2013 Show to everybody Giro Solitario 60.69 Km 97 m 02:05:20 29.05 Km\h De Rosa King3
28/04/2013 Show to everybody Madonna del bosco 100.34 Km 372 m 03:28:02 28.94 Km\h De Rosa King3
25/04/2013 Show to everybody Giro Società Brianza Gerno 83.12 Km 211 m 02:49:19 29.46 Km\h De Rosa King3
23/04/2013 Show to everybody Giro Mecenate 72.37 Km 59 m 02:24:44 30 Km\h De Rosa King3
18/04/2013 Show to everybody Giro Mecenate 73.1 Km 41 m 02:28:35 29.52 Km\h De Rosa King3
16/04/2013 Show to everybody Giro Mecenate 72.35 Km 43 m 02:15:36 32.01 Km\h De Rosa King3
15/04/2013 Show to everybody Giro solitario 48.95 Km 139 m 01:25:48 34.23 Km\h De Rosa King3
14/04/2013 Show to everybody Gf. Perini (Medio) 95.4 Km 1448 m 03:38:00 26.26 Km\h De Rosa King3
13/04/2013 Show to everybody Giro Mecenate 71.36 Km 52 m 02:28:22 28.86 Km\h De Rosa King3
11/04/2013 Show to everybody Giro Mecenate allungato 84.53 Km 80 m 02:44:31 30.83 Km\h De Rosa King3
07/04/2013 Show to everybody Gf. Dolci Terre di Novi (Medio) 103.03 Km 1321 m 03:52:02 26.64 Km\h De Rosa King3
06/04/2013 Show to everybody Giro Solitario 50.87 Km 49 m 01:58:46 25.7 Km\h De Rosa King3
04/04/2013 Show to everybody Giro Mecenate 71.02 Km 50 m 02:21:02 30.22 Km\h De Rosa King3
02/04/2013 Show to everybody Giro Mecenate 75.04 Km 58 m 02:36:21 28.8 Km\h De Rosa King3
28/03/2013 Show to everybody Giro Mecenate 72.55 Km 42 m 02:31:49 28.67 Km\h De Rosa King3
27/03/2013 Show to everybody Giro Solitario 72.16 Km 82 m 02:27:24 29.37 Km\h De Rosa King3
23/03/2013 Show to everybody Giro Mecenate allungato 85.37 Km 124 m 02:54:20 29.38 Km\h De Rosa King3
21/03/2013 Show to everybody Giro Mecenate 78.13 Km 91 m 02:54:06 26.93 Km\h De Rosa King3
19/03/2013 Show to everybody Giro Mecenate 71.18 Km 71 m 02:32:57 27.92 Km\h De Rosa King3
16/03/2013 Show to everybody Giro Mecenato allungato 87.82 Km 117 m 03:06:53 28.19 Km\h De Rosa King3
15/03/2013 Show to everybody Giro Donato 81.05 Km 146 m 02:42:07 30 Km\h De Rosa King3
14/03/2013 Show to everybody Giro Mecenate 72.49 Km 51 m 02:31:58 28.62 Km\h De Rosa King3
11/03/2013 Show to everybody Giro Solitario 58.1 Km 113 m 02:04:16 28.05 Km\h De Rosa King3
10/03/2013 Show to everybody Giro Mountan Bike 30.42 Km 44 m 01:16:36 23.83 Km\h Mountainbike
05/03/2013 Show to everybody Giro Mecenate accorciato 54.4 Km 40 m 02:01:19 26.9 Km\h De Rosa King3
03/03/2013 Show to everybody Giro Apertura Mecenate 65.3 Km 121 m 02:38:21 24.74 Km\h De Rosa King3
02/03/2013 Show to everybody Giro Mecenate Allungato 83.69 Km 127 m 02:53:55 28.87 Km\h De Rosa King3
28/02/2013 Show to everybody Giro Mecenate 72.13 Km 71 m 02:36:11 27.71 Km\h De Rosa King3
26/02/2013 Show to everybody Giro Mecenate 72.29 Km 66 m 02:52:58 25.08 Km\h De Rosa King3
23/02/2013 Show to everybody Giro Mecenate 75.13 Km 67 m 02:42:52 27.68 Km\h De Rosa King3
10/02/2013 Show to everybody Gf. Laigueglia 115.65 Km 1672 m 04:29:42 25.73 Km\h De Rosa King3
07/02/2013 Show to everybody Giro Mecenate 72.49 Km 67 m 02:40:25 27.11 Km\h De Rosa King3
05/02/2013 Show to everybody Giro Mecenate 72.39 Km 73 m 02:32:59 28.39 Km\h De Rosa King3
03/02/2013 Show to everybody Giro Società Brianza 89.11 Km 318 m 03:04:49 28.93 Km\h De Rosa King3
27/01/2013 Show to everybody Giro Società Brianza 86.09 Km 395 m 03:21:47 25.6 Km\h De Rosa King3
26/01/2013 Show to everybody Giro Mecenate 72.99 Km 52 m 02:37:19 27.84 Km\h De Rosa King3
24/01/2013 Show to everybody Giro Mecenate 71.7 Km 60 m 02:28:45 28.92 Km\h De Rosa King3
19/01/2013 Show to everybody Giro Mecenate 70.34 Km 54 m 02:25:39 28.98 Km\h De Rosa King3
18/01/2013 Show to everybody Giro Solitario 41.97 Km 44 m 01:37:22 25.86 Km\h De Rosa King3
15/01/2013 Show to everybody Allenamento 15-01-2013 alle 08:04:47.000 63.55 Km 58 m 02:20:39 27.11 Km\h De Rosa King3
10/01/2013 Show to everybody Giro Mecenate 71.51 Km 76 m 02:33:54 27.88 Km\h De Rosa King3
09/01/2013 Show to everybody Giro Solitario 57.48 Km 93 m 02:13:06 25.91 Km\h De Rosa King3
05/01/2013 Show to everybody Giro Mecenate Corto 61.28 Km 55 m 02:25:44 25.23 Km\h Mountainbike
03/01/2013 Show to everybody Giro Mecenate Corto 50.15 Km 81 m 02:00:24 24.99 Km\h Mountainbike
29/12/2012 Show to everybody Giro Solitario 50.1 Km 43 m 02:08:06 23.46 Km\h Mountainbike
27/12/2012 Show to everybody Giro solitario 38.96 Km 35 m 01:36:35 24.2 Km\h Mountainbike
20/12/2012 Show to everybody Giro Solitario 33.91 Km 31 m 01:27:38 23.22 Km\h Mountainbike
04/12/2012 Show to everybody Giro Società 69.33 Km 108 m 02:34:41 26.89 Km\h De Rosa King3
30/11/2012 Show to everybody Giro Società 61.77 Km 62 m 02:21:13 26.24 Km\h De Rosa King3
29/11/2012 Show to everybody Giro Società 41.36 Km 47 m 01:47:46 23.03 Km\h Mountainbike
24/11/2012 Show to everybody Giro Mecenate 71.1 Km 56 m 02:27:42 28.88 Km\h De Rosa King3
22/11/2012 Show to everybody Giro Società 74.94 Km 114 m 02:55:58 25.55 Km\h De Rosa King3
20/11/2012 Show to everybody Giro Società 66.22 Km 61 m 02:26:28 27.13 Km\h De Rosa King3
08/11/2012 Show to everybody Giro Mecenate 72.34 Km 60 m 02:34:12 28.15 Km\h De Rosa King3
07/11/2012 Show to everybody Giro Solitario 51.29 Km 82 m 01:51:43 27.55 Km\h De Rosa King3
03/11/2012 Show to everybody Giro con Ucsa 79.29 Km 142 m 02:48:42 28.2 Km\h De Rosa King3
02/11/2012 Show to everybody Giro Solitario 65.17 Km 97 m 02:17:54 28.35 Km\h De Rosa King3
30/10/2012 Show to everybody Giro Mecenate 72.08 Km 52 m 02:33:04 28.25 Km\h De Rosa King3
28/10/2012 Show to everybody Chiusura stagione con Mecenate (Pioggia) 38.2 Km 46 m 01:34:48 24.18 Km\h De Rosa King3
25/10/2012 Show to everybody Giro Mecenate Accorciato 63.09 Km 39 m 02:17:03 27.62 Km\h De Rosa King3
23/10/2012 Show to everybody Giro Mecenate 71.77 Km 62 m 02:19:58 30.77 Km\h De Rosa King3
21/10/2012 Show to everybody Allenamento 21-10-2012 alle 06:32:33.000 88.54 Km 283 m 03:08:03 28.25 Km\h De Rosa King3
18/10/2012 Show to everybody Giro Mecenate 71.6 Km 59 m 02:23:03 30.03 Km\h De Rosa King3
16/10/2012 Show to everybody Giro Mecenate 71.93 Km 69 m 02:24:48 29.81 Km\h De Rosa King3
14/10/2012 Show to everybody Gf. Roma 97.3 Km 1177 m 03:19:56 29.2 Km\h De Rosa King3
11/10/2012 Show to everybody Giro Mecenate 72.28 Km 47 m 02:23:35 30.2 Km\h De Rosa King3
09/10/2012 Show to everybody Giro Mecenate 71.29 Km 63 m 02:11:22 32.56 Km\h De Rosa King3
07/10/2012 Show to everybody Giro Società Brianza 94.43 Km 363 m 03:13:40 29.25 Km\h De Rosa King3
06/10/2012 Show to everybody Giro Mecenate 70.21 Km 45 m 02:11:22 32.07 Km\h De Rosa King3
04/10/2012 Show to everybody Giro Mecenate 72.2 Km 50 m 02:20:50 30.76 Km\h De Rosa King3
02/10/2012 Show to everybody Giro Mecenate 72.26 Km 56 m 02:15:33 31.99 Km\h De Rosa King3
28/09/2012 Show to everybody Giro Solitario 58.29 Km 27 m 02:04:27 28.1 Km\h De Rosa King3
25/09/2012 Show to everybody Giro Mecenate 73.76 Km 58 m 02:27:45 29.95 Km\h De Rosa King3
23/09/2012 Show to everybody Giro Solitario Defaticamento 48.72 Km 90 m 01:48:07 27.04 Km\h De Rosa King3
22/09/2012 Show to everybody Allenamento 22-09-12 alle 06:46 70.04 Km 49 m 02:04:00 33.89 Km\h De Rosa King3
20/09/2012 Show to everybody Giro Mecenate 71.23 Km 51 m 02:18:11 30.93 Km\h De Rosa King3
18/09/2012 Show to everybody Giro Mecenate 70.59 Km 69 m 02:19:11 30.43 Km\h De Rosa King3
16/09/2012 Show to everybody Giro Società San Colombano 90.78 Km 287 m 03:14:17 28.04 Km\h De Rosa King3
12/09/2012 Show to everybody Giro Solitario Defaticamento 66.17 Km 100 m 02:31:41 26.18 Km\h De Rosa King3
11/09/2012 Show to everybody Giro Mecenate 71.2 Km 66 m 02:16:31 31.29 Km\h De Rosa King3
09/09/2012 Show to everybody GF. 5 Terre (Medio) 87.44 Km 1650 m 03:40:35 23.78 Km\h De Rosa King3
06/09/2012 Show to everybody Giro Mecenate 71.03 Km 55 m 02:16:23 31.25 Km\h De Rosa King3
04/09/2012 Show to everybody Giro Mecenate 72.09 Km 57 m 02:28:15 29.18 Km\h De Rosa King3
30/08/2012 Show to everybody Giro Mecenate 71.07 Km 57 m 02:15:49 31.4 Km\h De Rosa King3
28/08/2012 Show to everybody Giro Mecenate 71.37 Km 65 m 02:13:41 32.03 Km\h De Rosa King3
26/08/2012 Show to everybody Brianza tetto Brianzolo 100.37 Km 555 m 03:45:32 26.7 Km\h De Rosa King3
23/08/2012 Show to everybody Passo Aprica 49.83 Km 924 m 02:11:04 22.81 Km\h De Rosa King3
18/08/2012 Show to everybody Spagna 34.34 Km 525 m 01:30:28 22.77 Km\h De Rosa King3
13/08/2012 Show to everybody Spagna 46.29 Km 464 m 01:54:19 24.3 Km\h De Rosa King3
07/08/2012 Show to everybody Spagna 56.84 Km 447 m 01:55:59 29.4 Km\h De Rosa King3
04/08/2012 Show to everybody Spagna 75.43 Km 954 m 02:43:49 27.63 Km\h De Rosa King3
29/07/2012 Show to everybody Giro Società in Brianza 96.11 Km 336 m 03:19:15 28.94 Km\h De Rosa King3
28/07/2012 Show to everybody Giro Mecenate 71.14 Km 51 m 02:16:56 31.17 Km\h De Rosa King3
26/07/2012 Show to everybody Giro Mecenate 72.21 Km 48 m 02:16:28 31.75 Km\h De Rosa King3
24/07/2012 Show to everybody Giro Mecenate 72.09 Km 55 m 02:22:50 30.28 Km\h De Rosa King3
23/07/2012 Show to everybody Pavia Milano 42.97 Km 78 m 01:22:55 31.1 Km\h De Rosa King3
22/07/2012 Show to everybody Giro Solitario 67.17 Km 81 m 02:22:46 28.23 Km\h De Rosa King3
21/07/2012 Show to everybody Pioggia 23.26 Km 10 m 00:58:45 23.76 Km\h De Rosa King3
19/07/2012 Show to everybody Giro Mecenate 72.14 Km 48 m 02:21:28 30.6 Km\h De Rosa King3
17/07/2012 Show to everybody Giro Mecenate 76.45 Km 50 m 02:37:00 29.22 Km\h De Rosa King3
15/07/2012 Show to everybody Giro Solitario 60.07 Km 101 m 02:10:00 27.73 Km\h De Rosa King3
14/07/2012 Show to everybody Giro Mecenate allungato 80.17 Km 61 m 02:34:39 31.1 Km\h De Rosa King3
12/07/2012 Show to everybody Giro Mecenate 71.35 Km 67 m 02:15:41 31.55 Km\h De Rosa King3
08/07/2012 Show to everybody Giro Societa Brianza 94.91 Km 414 m 03:17:05 28.89 Km\h De Rosa King3
07/07/2012 Show to everybody Giro Mecenate allungato 81.26 Km 49 m 02:46:31 29.28 Km\h De Rosa King3
03/07/2012 Show to everybody Giro Mecenate 72.48 Km 86 m 02:30:12 28.95 Km\h De Rosa King3
01/07/2012 Show to everybody Giro Solitario 57.46 Km 97 m 02:04:32 27.68 Km\h De Rosa King3
30/06/2012 Show to everybody Giro Mecenate 73.19 Km 78 m 02:30:47 29.13 Km\h De Rosa King3
29/06/2012 Show to everybody Defaticamento 50.15 Km 84 m 01:52:00 26.87 Km\h De Rosa King3
28/06/2012 Show to everybody Giro Mecenate 71.45 Km 59 m 02:15:34 31.62 Km\h De Rosa King3
26/06/2012 Show to everybody Giro Mecenate 71.5 Km 67 m 02:20:18 30.58 Km\h De Rosa King3
24/06/2012 Show to everybody Gf. Giordana Corto 82.63 Km 2046 m 04:13:25 19.56 Km\h De Rosa King3
22/06/2012 Show to everybody Giro Solitario Defaticamento 42.97 Km 39 m 01:37:57 26.32 Km\h De Rosa King3
21/06/2012 Show to everybody Giro Mecenate 72.36 Km 57 m 02:22:56 30.38 Km\h De Rosa King3
19/06/2012 Show to everybody Giro Mecenate 71.21 Km 60 m 02:32:09 28.08 Km\h De Rosa King3
17/06/2012 Show to everybody Gf. Medio Giovanni Lombardi 116.11 Km 1638 m 04:42:15 24.68 Km\h De Rosa King3
16/06/2012 Show to everybody Giro Solitario 45.84 Km 100 m 01:41:40 27.05 Km\h De Rosa King3
14/06/2012 Show to everybody Giro Mecenate 72.13 Km 80 m 02:15:25 31.96 Km\h De Rosa King3
13/06/2012 Show to everybody Giro Solitario 57.45 Km 74 m 02:07:03 27.13 Km\h De Rosa King3
10/06/2012 Show to everybody Gf. Eddy Mercks Medio 84.61 Km 1506 m 03:19:50 25.4 Km\h De Rosa King3
08/06/2012 Show to everybody Giro Solitario 41.52 Km 37 m 01:34:20 26.41 Km\h De Rosa King3
07/06/2012 Show to everybody Giro Mecenate 71 Km 40 m 02:15:13 31.5 Km\h De Rosa King3
05/06/2012 Show to everybody Giro Mecenate 71.38 Km 39 m 02:15:04 31.71 Km\h De Rosa King3
03/06/2012 Show to everybody Gf. Marathon dell\\\\\\\`Oltrepò Pavese Medio 101.68 Km 1419 m 03:50:07 26.51 Km\h De Rosa King3
29/05/2012 Show to everybody Giro Mecenate 71.46 Km 50 m 02:20:01 30.62 Km\h De Rosa King3
27/05/2012 Show to everybody Madonna del Bosco 103.45 Km 383 m 03:40:49 28.11 Km\h De Rosa King3
24/05/2012 Show to everybody Giro Mecenate 71.98 Km 36 m 02:24:16 29.93 Km\h De Rosa King3
23/05/2012 Show to everybody Giro Solitario 65.32 Km 95 m 02:20:10 27.96 Km\h De Rosa King3
22/05/2012 Show to everybody Giro Mecenate acorciato Defaticamento 53.55 Km 24 m 02:05:01 25.7 Km\h De Rosa King3
19/05/2012 Show to everybody Giro Mecenate acorciato Defaticamento 58.47 Km 63 m 02:11:05 26.77 Km\h De Rosa King3
17/05/2012 Show to everybody Giro Mecenate 72.34 Km 84 m 02:24:45 29.98 Km\h De Rosa King3
15/05/2012 Show to everybody Giro Mecenate allungato 97.41 Km 62 m 03:07:11 31.22 Km\h De Rosa King3
14/05/2012 Show to everybody Giro Solitario 55 Km 99 m 02:05:14 26.35 Km\h De Rosa King3
12/05/2012 Show to everybody Giro Mecenate acorciato Defaticamento 52.32 Km 37 m 01:58:19 26.53 Km\h De Rosa King3
10/05/2012 Show to everybody Giro Mecenate 71.32 Km 36 m 02:15:14 31.64 Km\h De Rosa King3
09/05/2012 Show to everybody Giro Solitario 50.13 Km 82 m 01:55:19 26.08 Km\h De Rosa King3
08/05/2012 Show to everybody Giro Mecenate allungato 89.96 Km 124 m 02:56:31 30.58 Km\h De Rosa King3
05/05/2012 Show to everybody Giro Mecenate 71.82 Km 39 m 02:27:31 29.21 Km\h De Rosa King3
03/05/2012 Show to everybody Giro Mecenate allungato 80.58 Km 57 m 02:44:13 29.44 Km\h De Rosa King3
02/05/2012 Show to everybody Giro Solitario 55.59 Km 82 m 02:06:42 26.33 Km\h De Rosa King3
29/04/2012 Show to everybody Gf. Valli Bresciane Medio 107.63 Km 1427 m 03:42:59 28.96 Km\h De Rosa King3
28/04/2012 Show to everybody Giro Mecenate accorciato 52.02 Km 26 m 01:48:21 28.81 Km\h De Rosa King3
25/04/2012 Show to everybody Brianza 100.96 Km 412 m 03:35:17 28.14 Km\h De Rosa King3
22/04/2012 Show to everybody Gf. Il Diavolo in Versilia Medio 92.63 Km 1283 m 03:36:00 25.73 Km\h De Rosa King3
21/04/2012 Show to everybody Giro Mecenate accorciato 53.47 Km 36 m 01:53:39 28.23 Km\h De Rosa King3
19/04/2012 Show to everybody Giro Mecenate 72.51 Km 35 m 02:28:03 29.39 Km\h De Rosa King3
17/04/2012 Show to everybody Giro Mecenate 70.76 Km 46 m 02:19:10 30.51 Km\h De Rosa King3
14/04/2012 Show to everybody Giro Mecenate accorciato 51.6 Km 120 m 01:50:29 28.02 Km\h De Rosa King3
12/04/2012 Show to everybody Giro salite Pavia 68.8 Km 1038 m 02:56:48 23.35 Km\h De Rosa King3
09/04/2012 Show to everybody Gf. Pantanissima Medio 110.49 Km 1661 m 04:31:11 24.45 Km\h De Rosa King3
07/04/2012 Show to everybody Giro Mecenate 70.2 Km 47 m 02:16:15 30.92 Km\h De Rosa King3
06/04/2012 Show to everybody Giro Solitario 55.02 Km 79 m 01:54:29 28.84 Km\h De Rosa King3
03/04/2012 Show to everybody Giro Mecenate 71.33 Km 45 m 02:17:27 31.14 Km\h De Rosa King3
24/03/2012 Show to everybody Giro Mecenate 69.86 Km 88 m 02:17:50 30.41 Km\h De Rosa King3
22/03/2012 Show to everybody Giro Mecenate 70.56 Km 133 m 02:27:33 28.69 Km\h De Rosa King3
15/03/2012 Show to everybody Giro Mecenate 71.58 Km 66 m 02:22:45 30.09 Km\h De Rosa King3
11/03/2012 Show to everybody Gf. Camogli 102.94 Km 1439 m 03:50:54 26.75 Km\h De Rosa King3
10/03/2012 Show to everybody Giro Mecenate accorciato 53.52 Km 102 m 02:07:02 25.28 Km\h De Rosa King3
08/03/2012 Show to everybody Giro Mecenate 76.13 Km 87 m 02:19:47 32.68 Km\h De Rosa King3
07/03/2012 Show to everybody Giro Solitario 50.3 Km 117 m 01:54:56 26.26 Km\h De Rosa King3
03/03/2012 Show to everybody Giro Mecenate allungato 80.05 Km 102 m 02:46:40 28.82 Km\h De Rosa King3
01/03/2012 Show to everybody Giro Mecenate 71.58 Km 118 m 02:15:24 31.72 Km\h De Rosa King3
28/02/2012 Show to everybody Giro Mecenate 72.69 Km 120 m 02:33:40 28.38 Km\h De Rosa King3
26/02/2012 Show to everybody Gf. Loano 100.4 Km 1399 m 03:47:04 26.53 Km\h De Rosa King3
25/02/2012 Show to everybody Giro Mecenate accorciato 52.03 Km 40 m 01:59:49 26.05 Km\h De Rosa King3
23/02/2012 Show to everybody Giro Mecenate 71.68 Km 48 m 02:24:57 29.67 Km\h De Rosa King3
21/02/2012 Show to everybody Giro Mecenate 71.24 Km 54 m 02:20:53 30.34 Km\h De Rosa King3
19/02/2012 Show to everybody Giro Mecenate 67.09 Km 70 m 02:31:11 26.62 Km\h De Rosa King3
18/02/2012 Show to everybody Giro Mecenate 69.92 Km 31 m 02:24:16 29.08 Km\h De Rosa King3
16/02/2012 Show to everybody Giro Mecenate 71.47 Km 56 m 02:45:40 25.89 Km\h De Rosa King3
15/02/2012 Show to everybody Giro Solitario 50.57 Km 53 m 01:55:40 26.23 Km\h De Rosa King3
08/02/2012 Show to everybody Giro Solitario 56.4 Km 171 m 02:00:30 28.08 Km\h De Rosa King3
31/01/2012 Show to everybody Giro Mecenate 71.8 Km 117 m 02:34:25 27.9 Km\h De Rosa King3
28/01/2012 Show to everybody Giro Mecenate 70.17 Km 122 m 02:29:00 28.25 Km\h De Rosa King3
27/01/2012 Show to everybody Giro Solitario 55.75 Km 158 m 01:59:02 28.1 Km\h De Rosa King3
25/01/2012 Show to everybody Giro Solitario 56.06 Km 115 m 02:03:10 27.31 Km\h De Rosa King3
22/01/2012 Show to everybody Giro Mecenate 89.43 Km 287 m 03:10:11 28.21 Km\h De Rosa King3
21/01/2012 Show to everybody Giro Mecenate 68.91 Km 74 m 02:29:49 27.6 Km\h De Rosa King3
19/01/2012 Show to everybody Giro Solitario in Montabike 37.05 Km 132 m 01:37:06 22.89 Km\h De Rosa King3
12/01/2012 Show to everybody Giro Mecenate 78.63 Km 144 m 02:42:13 29.08 Km\h De Rosa King3
10/01/2012 Show to everybody Giro Mecenate 79.82 Km 140 m 02:51:07 27.99 Km\h De Rosa King3
08/01/2012 Show to everybody Società 93.88 Km 395 m 03:20:45 28.06 Km\h De Rosa King3
06/01/2012 Show to everybody Giro Solitario in Montabike 38.29 Km 75 m 01:37:39 23.53 Km\h Mountainbike
05/01/2012 Show to everybody Giro Mecenate 75.91 Km 60 m 02:47:55 27.12 Km\h De Rosa King3
03/01/2012 Show to everybody Giro Solitario in Montabike 47.66 Km 99 m 02:03:50 23.09 Km\h Mountainbike
31/12/2011 Show to everybody Giro Mecenate 75.45 Km 97 m 02:44:19 27.55 Km\h De Rosa King3
29/12/2011 Show to everybody Giro Mecenate 76.16 Km 119 m 02:41:19 28.33 Km\h De Rosa King3
27/12/2011 Show to everybody Giro Mecenate 63.89 Km 130 m 02:31:22 25.33 Km\h Mountainbike
26/12/2011 Show to everybody Giro Solitario 40.38 Km 107 m 01:40:42 24.06 Km\h Mountainbike
26/12/2011 Show to everybody Giro Solitario 40.38 Km 107 m 01:40:42 24.06 Km\h Mountainbike
22/12/2011 Show to everybody Giro Solitario 54.87 Km 93 m 02:08:09 25.69 Km\h Mountainbike
20/12/2011 Show to everybody Giro Mecenate 70.16 Km